Time;durP1;ratioP1;P1;durP2;ratioP2;P2;SDS_P1;SDS_P2;PMS_P1;PMS_P2;Temp;Humidity;BMP_temperature;BMP_pressure;BME280_temperature;BME280_humidity;BME280_pressure;Samples;Min_cycle;Max_cycle;Signal;HPM_P1;HPM_P2
2023/07/26 00:00:16;;;;;;;5.03;2.08;;;13.50;99.90;;;;;;5138091;27;20130;-71
2023/07/26 00:02:42;;;;;;;4.72;1.98;;;13.50;99.90;;;;;;5120263;27;20088;-71
2023/07/26 00:05:08;;;;;;;5.45;2.10;;;13.50;99.90;;;;;;5099166;28;20051;-72
2023/07/26 00:07:33;;;;;;;5.10;2.08;;;13.50;99.90;;;;;;5117292;28;20048;-73
2023/07/26 00:09:59;;;;;;;5.35;2.13;;;13.50;99.90;;;;;;5116365;28;20044;-72
2023/07/26 00:12:26;;;;;;;4.80;2.03;;;13.50;99.90;;;;;;5117725;27;20054;-72
2023/07/26 00:14:53;;;;;;;6.20;2.10;;;13.40;99.90;;;;;;5099368;28;20043;-73
2023/07/26 00:17:18;;;;;;;4.70;2.50;;;13.50;99.90;;;;;;5116327;28;20520;-73
2023/07/26 00:19:44;;;;;;;5.07;2.17;;;13.50;99.90;;;;;;5117518;28;20130;-72
2023/07/26 00:22:10;;;;;;;7.13;1.98;;;13.40;99.90;;;;;;5117431;28;20089;-72
2023/07/26 00:24:36;;;;;;;5.00;2.17;;;13.50;99.90;;;;;;5116207;28;20050;-72
2023/07/26 00:27:01;;;;;;;6.03;2.13;;;13.40;99.90;;;;;;5116012;28;20063;-72
2023/07/26 00:29:27;;;;;;;4.75;2.20;;;13.40;99.90;;;;;;5082451;28;20043;-72
2023/07/26 00:31:53;;;;;;;4.82;2.17;;;13.40;99.90;;;;;;5117793;28;20077;-72
2023/07/26 00:34:19;;;;;;;6.35;2.47;;;13.40;99.90;;;;;;5115963;28;20135;-71
2023/07/26 00:36:44;;;;;;;8.10;2.20;;;13.50;99.90;;;;;;5099286;28;20054;-72
2023/07/26 00:39:11;;;;;;;5.70;2.55;;;13.40;99.90;;;;;;5117541;28;20119;-72
2023/07/26 00:41:37;;;;;;;5.13;2.42;;;13.40;99.90;;;;;;5117133;28;20399;-72
2023/07/26 00:44:03;;;;;;;8.95;2.42;;;13.40;99.90;;;;;;5115872;28;20135;-71
2023/07/26 00:46:29;;;;;;;7.63;2.13;;;13.40;99.90;;;;;;5117673;28;20039;-71
2023/07/26 00:48:55;;;;;;;5.38;2.80;;;13.40;99.90;;;;;;5116934;28;20047;-72
2023/07/26 00:51:21;;;;;;;4.35;2.28;;;13.40;99.90;;;;;;5116924;28;20403;-72
2023/07/26 00:53:48;;;;;;;5.65;2.45;;;13.40;99.90;;;;;;5116117;28;20079;-71
2023/07/26 00:56:13;;;;;;;6.93;2.63;;;13.40;99.90;;;;;;5115746;28;20036;-71
2023/07/26 00:58:42;;;;;;;5.57;2.33;;;13.40;99.90;;;;;;5116647;28;20495;-72
2023/07/26 01:01:08;;;;;;;5.85;2.65;;;13.40;99.90;;;;;;5116442;28;20092;-72
2023/07/26 01:03:34;;;;;;;7.30;2.70;;;13.40;99.90;;;;;;5114030;28;20059;-72
2023/07/26 01:06:14;;;;;;;7.97;2.83;;;13.40;99.90;;;;;;5115848;28;20051;-72
2023/07/26 01:09:02;;;;;;;5.72;2.60;;;13.30;99.90;;;;;;5117856;28;20056;-72
2023/07/26 01:11:35;;;;;;;8.55;2.97;;;13.40;99.90;;;;;;5115803;28;20134;-72
2023/07/26 01:14:21;;;;;;;5.18;2.50;;;13.40;99.90;;;;;;5117018;28;20044;-72
2023/07/26 01:16:47;;;;;;;5.30;2.80;;;13.40;99.90;;;;;;5115854;28;20051;-72
2023/07/26 01:19:13;;;;;;;11.00;3.63;;;13.40;99.90;;;;;;5098720;28;20050;-72
2023/07/26 01:21:38;;;;;;;6.78;3.00;;;13.40;99.90;;;;;;5116753;28;20391;-72
2023/07/26 01:24:04;;;;;;;7.53;2.80;;;13.40;99.90;;;;;;5116606;28;20111;-73
2023/07/26 01:26:30;;;;;;;5.50;2.95;;;13.40;99.90;;;;;;5116447;28;20058;-72
2023/07/26 01:28:56;;;;;;;4.65;2.50;;;13.40;99.90;;;;;;5115496;28;20044;-72
2023/07/26 01:31:24;;;;;;;7.82;3.22;;;13.40;99.90;;;;;;5116268;28;20054;-72
2023/07/26 01:33:52;;;;;;;9.00;3.58;;;13.30;99.90;;;;;;5116466;28;20046;-73
2023/07/26 01:36:22;;;;;;;6.15;3.15;;;13.30;99.90;;;;;;5115469;28;20462;-73
2023/07/26 01:38:48;;;;;;;7.35;3.20;;;13.30;99.90;;;;;;5098783;28;20138;-73
2023/07/26 01:41:16;;;;;;;7.10;3.35;;;13.20;99.90;;;;;;5116099;28;20043;-73
2023/07/26 01:43:42;;;;;;;5.93;3.35;;;13.20;99.90;;;;;;5116090;28;20488;-72
2023/07/26 01:46:12;;;;;;;5.60;2.90;;;13.10;99.90;;;;;;5116173;28;20051;-72
2023/07/26 01:48:39;;;;;;;6.75;3.33;;;13.00;99.90;;;;;;5116122;28;20050;-71
2023/07/26 01:51:05;;;;;;;5.93;2.97;;;13.00;99.90;;;;;;5128652;28;20097;-72
2023/07/26 01:53:30;;;;;;;6.05;3.67;;;12.90;99.90;;;;;;5118466;28;20044;-70
2023/07/26 01:55:56;;;;;;;6.95;3.10;;;12.80;99.90;;;;;;5117821;28;20054;-73
2023/07/26 01:58:22;;;;;;;6.78;2.90;;;12.80;99.90;;;;;;5114454;28;20394;-72
2023/07/26 02:00:47;;;;;;;6.78;2.80;;;12.70;99.90;;;;;;5115861;28;20134;-73
2023/07/26 02:03:13;;;;;;;5.20;3.00;;;12.70;99.90;;;;;;5098671;28;20051;-72
2023/07/26 02:05:46;;;;;;;5.95;2.80;;;12.60;99.90;;;;;;5118153;27;20086;-72
2023/07/26 02:08:13;;;;;;;5.72;2.95;;;12.60;99.90;;;;;;5136229;27;20046;-72
2023/07/26 02:10:39;;;;;;;5.40;2.97;;;12.50;99.90;;;;;;5118741;27;20471;-72
2023/07/26 02:13:05;;;;;;;6.97;2.88;;;12.50;99.90;;;;;;5118244;27;20072;-73
2023/07/26 02:15:31;;;;;;;6.53;3.20;;;12.40;99.90;;;;;;5136255;27;20050;-73
2023/07/26 02:17:57;;;;;;;10.27;3.38;;;12.40;99.90;;;;;;5137019;27;20122;-72
2023/07/26 02:20:23;;;;;;;7.57;3.08;;;12.30;99.90;;;;;;5136107;27;20039;-72
2023/07/26 02:22:49;;;;;;;7.68;3.55;;;12.30;99.90;;;;;;5136089;27;20054;-73
2023/07/26 02:25:15;;;;;;;8.10;3.45;;;12.20;99.90;;;;;;5101471;27;20055;-72
2023/07/26 02:27:41;;;;;;;6.32;3.50;;;12.20;99.90;;;;;;5135838;27;20042;-72
2023/07/26 02:30:07;;;;;;;7.90;3.60;;;12.20;99.90;;;;;;5118123;27;20051;-71
2023/07/26 02:32:33;;;;;;;7.38;3.88;;;12.20;99.90;;;;;;5136319;27;20047;-73
2023/07/26 02:34:59;;;;;;;7.05;3.50;;;12.20;99.90;;;;;;5135743;27;20069;-72
2023/07/26 02:37:25;;;;;;;7.28;3.80;;;12.20;99.90;;;;;;5135713;27;20096;-72
2023/07/26 02:39:51;;;;;;;7.22;3.42;;;12.20;99.90;;;;;;5117795;27;20054;-72
2023/07/26 02:42:17;;;;;;;6.47;3.70;;;12.20;99.90;;;;;;5135843;27;20086;-73
2023/07/26 02:44:44;;;;;;;9.05;3.63;;;12.10;99.90;;;;;;5135310;27;20046;-72
2023/07/26 02:47:10;;;;;;;;;;;12.10;99.90;;;;;;5117872;27;20082;-72
2023/07/26 02:49:36;;;;;;;6.73;3.97;;;12.10;99.90;;;;;;5135416;27;19920;-72
2023/07/26 02:52:02;;;;;;;7.75;3.65;;;12.00;99.90;;;;;;5135657;27;20053;-72
2023/07/26 02:54:27;;;;;;;9.98;3.53;;;12.00;99.90;;;;;;5101150;27;20103;-73
2023/07/26 02:56:53;;;;;;;6.32;3.65;;;11.90;99.90;;;;;;5135305;27;20046;-73
2023/07/26 02:59:19;;;;;;;7.72;3.50;;;11.90;99.90;;;;;;5120643;27;20043;-72
2023/07/26 03:01:44;;;;;;;6.20;3.50;;;11.80;99.90;;;;;;5155224;27;20487;-72
2023/07/26 03:04:11;;;;;;;8.05;3.63;;;11.80;99.90;;;;;;5149045;27;20069;-71
2023/07/26 03:06:37;;;;;;;6.88;3.63;;;11.70;99.90;;;;;;5135232;27;20125;-72
2023/07/26 03:09:03;;;;;;;7.53;3.80;;;11.70;99.90;;;;;;5135104;27;20066;-72
2023/07/26 03:11:28;;;;;;;7.13;3.65;;;11.70;99.90;;;;;;5135171;27;20054;-71
2023/07/26 03:13:55;;;;;;;9.50;3.58;;;11.70;99.90;;;;;;5099741;27;20494;-72
2023/07/26 03:16:21;;;;;;;7.53;3.17;;;11.60;99.90;;;;;;5135176;27;20078;-73
2023/07/26 03:18:47;;;;;;;6.93;4.03;;;11.60;99.90;;;;;;5134307;27;20066;-73
2023/07/26 03:21:13;;;;;;;7.53;4.32;;;11.60;99.90;;;;;;5135454;27;20047;-73
2023/07/26 03:23:39;;;;;;;7.70;3.67;;;11.50;99.90;;;;;;5100428;27;20475;-72
2023/07/26 03:26:05;;;;;;;7.05;3.70;;;11.50;99.90;;;;;;5134956;27;20040;-71
2023/07/26 03:28:30;;;;;;;7.38;4.20;;;11.40;99.90;;;;;;5117116;27;20043;-72
2023/07/26 03:30:56;;;;;;;6.32;3.70;;;11.40;99.90;;;;;;5116641;27;20070;-71
2023/07/26 03:33:22;;;;;;;7.60;3.70;;;11.50;99.90;;;;;;5135120;27;20054;-72
2023/07/26 03:35:48;;;;;;;6.40;3.67;;;11.50;99.90;;;;;;5100177;27;20043;-72
2023/07/26 03:38:14;;;;;;;7.75;4.10;;;11.50;99.90;;;;;;5117468;27;20122;-72
2023/07/26 03:40:40;;;;;;;6.07;3.78;;;11.50;99.90;;;;;;5116739;28;20043;-71
2023/07/26 03:43:07;;;;;;;6.85;3.70;;;11.50;99.90;;;;;;5134690;28;20135;-72
2023/07/26 03:45:33;;;;;;;7.78;3.45;;;11.50;99.90;;;;;;5099407;28;20039;-72
2023/07/26 03:47:59;;;;;;;8.00;4.15;;;11.50;99.90;;;;;;5117018;28;20130;-72
2023/07/26 03:50:25;;;;;;;7.65;3.55;;;11.50;99.90;;;;;;5116276;28;20043;-72
2023/07/26 03:52:51;;;;;;;8.48;3.88;;;11.40;99.90;;;;;;5116619;28;20536;-72
2023/07/26 03:55:17;;;;;;;7.13;3.47;;;11.40;99.90;;;;;;5134413;28;20409;-72
2023/07/26 03:57:43;;;;;;;7.22;3.72;;;11.40;99.90;;;;;;5150835;27;20039;-71
2023/07/26 04:00:09;;;;;;;5.90;3.33;;;11.40;99.90;;;;;;5116139;28;20039;-71
2023/07/26 04:02:35;;;;;;;6.63;3.40;;;11.40;99.90;;;;;;5134531;28;20217;-72
2023/07/26 04:05:00;;;;;;;8.52;3.40;;;11.40;99.90;;;;;;5134901;28;20561;-72
2023/07/26 04:07:26;;;;;;;8.32;3.47;;;11.40;99.90;;;;;;5134210;28;20074;-73
2023/07/26 04:09:52;;;;;;;7.40;3.50;;;11.40;99.90;;;;;;5117194;28;20481;-72
2023/07/26 04:12:18;;;;;;;8.55;3.50;;;11.40;99.90;;;;;;5121473;28;20103;-71
2023/07/26 04:14:44;;;;;;;5.85;3.30;;;11.50;99.90;;;;;;5123186;28;20093;-72
2023/07/26 04:17:09;;;;;;;6.93;3.70;;;11.50;99.90;;;;;;5117452;28;20379;-74
2023/07/26 04:19:35;;;;;;;8.77;3.28;;;11.60;99.90;;;;;;5135492;28;20051;-71
2023/07/26 04:22:01;;;;;;;7.68;3.53;;;11.60;99.90;;;;;;5134283;28;20079;-71
2023/07/26 04:24:27;;;;;;;6.00;3.25;;;11.70;99.90;;;;;;5150243;27;20051;-72
2023/07/26 04:26:53;;;;;;;8.25;3.20;;;11.70;99.90;;;;;;5099138;28;20390;-72
2023/07/26 04:29:19;;;;;;;5.97;2.90;;;11.80;99.90;;;;;;5119028;27;20043;-72
2023/07/26 04:31:45;;;;;;;6.40;3.37;;;11.90;99.90;;;;;;5138033;27;20039;-71
2023/07/26 04:34:12;;;;;;;6.97;3.42;;;11.90;99.90;;;;;;5102954;27;20453;-71
2023/07/26 04:36:38;;;;;;;6.78;3.10;;;11.90;99.90;;;;;;5119606;27;20096;-72
2023/07/26 04:39:04;;;;;;;8.02;2.90;;;12.00;99.90;;;;;;5138573;27;20412;-72
2023/07/26 04:41:30;;;;;;;10.05;3.15;;;12.00;99.90;;;;;;5138030;27;20372;-72
2023/07/26 04:43:56;;;;;;;5.40;3.08;;;12.00;99.90;;;;;;5120166;27;20046;-72
2023/07/26 04:46:21;;;;;;;8.23;3.10;;;12.00;99.90;;;;;;5137756;27;20148;-72
2023/07/26 04:48:47;;;;;;;6.65;3.30;;;12.10;99.90;;;;;;5102619;27;20051;-72
2023/07/26 04:51:13;;;;;;;7.55;2.90;;;12.10;99.90;;;;;;5138352;27;20047;-72
2023/07/26 04:53:39;;;;;;;7.10;3.47;;;12.10;99.90;;;;;;5102140;27;20043;-70
2023/07/26 04:56:05;;;;;;;6.25;3.70;;;12.10;99.90;;;;;;5136403;27;20043;-71
2023/07/26 04:58:30;;;;;;;8.23;3.58;;;12.10;99.90;;;;;;5102449;27;20043;-73
2023/07/26 05:00:57;;;;;;;9.50;3.53;;;12.10;99.90;;;;;;5102794;27;20137;-73
2023/07/26 05:03:23;;;;;;;9.07;3.80;;;12.20;99.90;;;;;;5136544;27;20134;-73
2023/07/26 05:05:52;;;;;;;7.32;3.28;;;12.30;99.90;;;;;;5119559;27;20526;-72
2023/07/26 05:08:20;;;;;;;6.47;3.35;;;12.40;99.90;;;;;;5119389;27;20440;-71
2023/07/26 05:10:50;;;;;;;6.72;3.60;;;12.50;99.90;;;;;;5118561;27;20043;-71
2023/07/26 05:13:17;;;;;;;6.95;3.70;;;12.50;99.90;;;;;;5101572;27;20066;-72
2023/07/26 05:15:42;;;;;;;7.63;3.80;;;12.60;99.90;;;;;;5137295;27;20039;-72
2023/07/26 05:18:08;;;;;;;8.45;3.72;;;12.70;99.90;;;;;;5119889;27;20353;-72
2023/07/26 05:20:34;;;;;;;8.45;3.83;;;12.80;99.90;;;;;;5119130;27;20039;-70
2023/07/26 05:22:59;;;;;;;9.98;4.05;;;12.90;99.90;;;;;;5151400;27;20030;-73
2023/07/26 05:25:25;;;;;;;6.90;3.80;;;13.00;99.90;;;;;;5119248;27;20043;-71
2023/07/26 05:27:51;;;;;;;9.80;5.07;;;13.00;99.90;;;;;;5136962;27;20416;-72
2023/07/26 05:30:19;;;;;;;9.20;5.13;;;13.00;99.90;;;;;;5119078;27;20514;-72
2023/07/26 05:32:45;;;;;;;8.93;4.93;;;13.10;99.90;;;;;;5118439;27;20378;-73
2023/07/26 05:35:14;;;;;;;7.15;4.60;;;13.20;99.90;;;;;;5136911;27;20055;-72
2023/07/26 05:37:40;;;;;;;10.02;5.13;;;13.20;99.90;;;;;;5136748;27;20039;-72
2023/07/26 05:40:06;;;;;;;9.45;5.32;;;13.20;99.90;;;;;;5135909;27;20495;-72
2023/07/26 05:42:32;;;;;;;7.90;4.70;;;13.10;99.90;;;;;;5118455;27;20039;-72
2023/07/26 05:44:58;;;;;;;11.02;5.25;;;13.20;99.90;;;;;;5136574;27;20100;-72
2023/07/26 05:47:24;;;;;;;9.23;5.20;;;13.10;99.90;;;;;;5101299;27;20043;-72
2023/07/26 05:49:50;;;;;;;10.10;5.10;;;13.10;99.90;;;;;;5118528;27;20386;-72
2023/07/26 05:52:16;;;;;;;8.02;5.35;;;13.10;99.90;;;;;;5118272;27;20104;-72
2023/07/26 05:54:42;;;;;;;9.73;5.20;;;13.10;99.90;;;;;;5136431;27;20035;-72
2023/07/26 05:57:08;;;;;;;9.35;5.22;;;13.20;99.90;;;;;;5117853;27;20041;-72
2023/07/26 05:59:34;;;;;;;9.55;5.15;;;13.20;99.90;;;;;;5152372;27;20046;-73
2023/07/26 06:02:01;;;;;;;;;;;13.30;99.90;;;;;;5136419;27;20085;-72
2023/07/26 06:04:29;;;;;;;7.03;4.20;;;13.30;99.90;;;;;;5117893;27;19930;-72
2023/07/26 06:06:56;;;;;;;8.82;4.70;;;13.40;99.90;;;;;;5117695;27;20047;-73
2023/07/26 06:09:25;;;;;;;7.40;4.05;;;13.50;99.90;;;;;;5136351;27;20071;-71
2023/07/26 06:11:51;;;;;;;8.65;4.85;;;13.50;99.90;;;;;;5136198;27;20058;-72
2023/07/26 06:14:17;;;;;;;9.00;3.95;;;13.50;99.90;;;;;;5136461;27;20043;-72
2023/07/26 06:16:42;;;;;;;10.73;3.80;;;13.50;99.90;;;;;;5118191;27;20088;-73
2023/07/26 06:19:08;;;;;;;6.80;4.03;;;13.50;99.90;;;;;;5117846;27;20046;-74
2023/07/26 06:21:34;;;;;;;9.50;4.10;;;13.50;99.90;;;;;;5136166;27;20051;-72
2023/07/26 06:24:00;;;;;;;7.63;3.97;;;13.50;99.90;;;;;;5117746;27;20086;-73
2023/07/26 06:26:25;;;;;;;7.80;3.90;;;13.60;99.90;;;;;;5135932;27;20376;-72
2023/07/26 06:28:51;;;;;;;7.47;4.45;;;13.60;99.90;;;;;;5117443;27;20047;-73
2023/07/26 06:31:17;;;;;;;7.55;4.18;;;13.60;99.90;;;;;;5150276;27;20050;-73
2023/07/26 06:33:43;;;;;;;8.55;3.88;;;13.80;99.90;;;;;;5151684;27;20530;-73
2023/07/26 06:36:08;;;;;;;8.48;4.40;;;13.90;99.90;;;;;;5117542;27;20047;-73
2023/07/26 06:38:34;;;;;;;8.98;4.88;;;14.00;99.90;;;;;;5117629;27;20086;-72
2023/07/26 06:41:00;;;;;;;9.23;5.35;;;14.00;99.90;;;;;;5135477;27;20079;-72
2023/07/26 06:43:26;;;;;;;9.27;5.00;;;14.10;99.90;;;;;;5136480;27;20047;-71
2023/07/26 06:45:52;;;;;;;10.20;5.33;;;14.10;99.90;;;;;;5135612;27;20043;-73
2023/07/26 06:48:21;;;;;;;9.50;5.05;;;14.20;99.90;;;;;;5117299;27;20039;-71
2023/07/26 06:50:47;;;;;;;7.88;3.95;;;14.30;99.90;;;;;;5135554;27;20058;-73
2023/07/26 06:53:13;;;;;;;7.20;4.65;;;14.50;99.90;;;;;;5116953;27;20059;-71
2023/07/26 06:55:39;;;;;;;7.88;3.85;;;14.60;99.90;;;;;;5117358;27;20083;-72
2023/07/26 06:58:05;;;;;;;7.47;4.18;;;14.70;99.90;;;;;;5135625;27;20087;-72
2023/07/26 07:00:31;;;;;;;9.25;4.00;;;14.90;99.90;;;;;;5135691;27;20039;-73
2023/07/26 07:02:58;;;;;;;11.07;4.68;;;14.90;99.90;;;;;;5135665;27;20058;-73
2023/07/26 07:05:29;;;;;;;10.77;4.88;;;14.90;99.90;;;;;;5099783;27;20055;-72
2023/07/26 07:07:55;;;;;;;10.25;4.47;;;14.90;99.90;;;;;;5117339;27;20035;-72
2023/07/26 07:10:24;;;;;;;9.10;4.57;;;15.00;99.90;;;;;;5116785;27;20050;-71
2023/07/26 07:12:50;;;;;;;8.20;4.60;;;15.00;99.90;;;;;;5117522;27;20047;-73
2023/07/26 07:15:16;;;;;;;10.18;4.40;;;15.00;99.90;;;;;;5135145;27;20039;-71
2023/07/26 07:17:42;;;;;;;8.88;4.95;;;14.90;99.90;;;;;;5083363;27;20092;-72
2023/07/26 07:20:08;;;;;;;10.10;3.97;;;15.00;99.90;;;;;;5116725;27;20051;-69
2023/07/26 07:22:37;;;;;;;9.90;4.32;;;15.00;99.90;;;;;;5099747;27;20047;-72
2023/07/26 07:25:03;;;;;;;9.32;4.45;;;15.00;99.90;;;;;;5117025;28;20383;-72
2023/07/26 07:27:29;;;;;;;7.90;4.80;;;15.00;99.90;;;;;;5116876;27;20470;-72
2023/07/26 07:29:55;;;;;;;7.95;4.50;;;15.00;99.90;;;;;;5116684;27;20053;-72
2023/07/26 07:32:21;;;;;;;11.95;4.30;;;14.90;99.90;;;;;;5117344;27;20114;-72
2023/07/26 07:34:47;;;;;;;9.27;4.47;;;14.90;99.90;;;;;;5134207;27;20082;-72
2023/07/26 07:37:13;;;;;;;8.50;4.50;;;14.70;99.90;;;;;;5116456;28;20047;-70
2023/07/26 07:39:39;;;;;;;12.52;4.35;;;14.70;99.90;;;;;;5143026;27;20054;-70
2023/07/26 07:42:05;;;;;;;6.80;3.85;;;14.60;99.90;;;;;;5147531;27;20471;-69
2023/07/26 07:44:30;;;;;;;8.55;4.35;;;14.50;99.90;;;;;;5117847;28;20445;-71
2023/07/26 07:46:57;;;;;;;10.80;4.40;;;14.40;99.90;;;;;;5116386;28;20072;-72
2023/07/26 07:49:23;;;;;;;11.17;5.10;;;14.40;99.90;;;;;;5099747;28;20043;-70
2023/07/26 07:51:49;;;;;;;9.55;4.65;;;14.40;99.90;;;;;;5117365;28;20375;-69
2023/07/26 07:54:15;;;;;;;7.72;4.30;;;14.40;99.90;;;;;;5135349;28;20046;-70
2023/07/26 07:56:41;;;;;;;8.98;4.95;;;14.40;99.90;;;;;;5134739;28;20099;-71
2023/07/26 07:59:07;;;;;;;9.25;4.65;;;14.40;99.90;;;;;;5135076;28;20043;-70
2023/07/26 08:01:33;;;;;;;7.63;4.47;;;14.40;99.90;;;;;;5134590;28;20050;-74
2023/07/26 08:03:59;;;;;;;10.07;4.45;;;14.30;99.90;;;;;;5135967;27;20076;-71
2023/07/26 08:06:29;;;;;;;8.57;4.50;;;14.30;99.90;;;;;;5120537;27;20043;-72
2023/07/26 08:08:55;;;;;;;7.10;3.80;;;14.40;99.90;;;;;;5120546;27;20134;-73
2023/07/26 08:11:21;;;;;;;9.40;3.77;;;14.70;99.90;;;;;;5120107;27;20042;-72
2023/07/26 08:13:48;;;;;;;7.65;3.72;;;14.80;99.90;;;;;;5154680;27;20324;-70
2023/07/26 08:16:14;;;;;;;7.53;2.67;;;14.90;99.90;;;;;;5137540;27;20055;-73
2023/07/26 08:18:39;;;;;;;5.70;2.20;;;15.10;99.90;;;;;;5138500;27;20043;-72
2023/07/26 08:21:05;;;;;;;5.32;2.40;;;15.30;99.90;;;;;;5102970;27;20055;-72
2023/07/26 08:23:31;;;;;;;4.13;1.58;;;15.60;99.90;;;;;;5138167;27;20108;-70
2023/07/26 08:26:05;;;;;;;3.17;1.10;;;15.80;99.90;;;;;;5154341;27;20050;-72
2023/07/26 08:28:31;;;;;;;2.50;0.82;;;16.00;99.90;;;;;;5120343;27;20047;-71
2023/07/26 08:30:57;;;;;;;3.53;1.10;;;16.00;99.90;;;;;;5137139;27;20039;-76
2023/07/26 08:33:23;;;;;;;4.35;1.00;;;15.90;99.90;;;;;;5138322;27;20419;-70
2023/07/26 08:35:49;;;;;;;3.97;1.00;;;15.70;99.90;;;;;;5138126;27;20085;-70
2023/07/26 08:38:15;;;;;;;3.38;1.23;;;15.70;99.90;;;;;;5137984;27;20095;-70
2023/07/26 08:40:50;;;;;;;3.30;1.30;;;15.60;99.90;;;;;;5119825;27;20364;-71
2023/07/26 08:43:21;;;;;;;5.53;1.52;;;15.60;99.90;;;;;;5138000;27;20387;-73
2023/07/26 08:45:47;;;;;;;3.63;1.33;;;15.60;99.90;;;;;;5138175;27;20506;-70
2023/07/26 08:48:13;;;;;;;3.63;1.30;;;15.70;99.90;;;;;;5137875;27;20043;-69
2023/07/26 08:50:40;;;;;;;5.07;2.03;;;15.80;99.90;;;;;;5162851;27;20047;-69
2023/07/26 08:53:06;;;;;;;4.32;1.73;;;16.00;99.90;;;;;;5140662;27;20047;-71
2023/07/26 08:55:36;;;;;;;5.97;2.17;;;16.30;99.90;;;;;;5119763;27;20049;-73
2023/07/26 08:58:04;;;;;;;4.70;1.77;;;16.50;99.90;;;;;;5119301;27;20082;-70
2023/07/26 09:00:30;;;;;;;5.90;2.03;;;16.70;99.90;;;;;;5120337;27;20363;-71
2023/07/26 09:02:59;;;;;;;4.88;2.45;;;16.90;99.90;;;;;;5137626;27;20091;-70
2023/07/26 09:05:25;;;;;;;7.72;2.88;;;17.00;99.90;;;;;;5138513;27;20457;-70
2023/07/26 09:07:51;;;;;;;5.88;2.80;;;17.00;99.90;;;;;;5138083;27;20130;-71
2023/07/26 09:10:25;;;;;;;7.23;2.70;;;17.00;99.90;;;;;;5137960;27;20047;-70
2023/07/26 09:12:51;;;;;;;5.15;2.42;;;17.00;99.90;;;;;;5137389;27;20053;-71
2023/07/26 09:15:19;;;;;;;5.47;2.53;;;17.00;99.90;;;;;;5101267;27;20394;-68
2023/07/26 09:17:45;;;;;;;7.63;2.88;;;17.10;99.90;;;;;;5118991;27;20038;-72
2023/07/26 09:20:26;;;;;;;5.88;2.10;;;17.20;99.90;;;;;;5119748;27;20040;-70
2023/07/26 09:23:18;;;;;;;8.20;2.30;;;17.30;99.90;;;;;;5137093;27;20070;-71
2023/07/26 09:25:44;;;;;;;5.13;2.50;;;17.30;99.90;;;;;;5133072;27;20466;-72
2023/07/26 09:28:13;;;;;;;6.55;2.20;;;17.30;99.90;;;;;;5137730;27;20359;-70
2023/07/26 09:30:48;;;;;;;5.80;2.13;;;17.40;99.90;;;;;;5137139;27;20394;-70
2023/07/26 09:33:15;;;;;;;7.20;2.38;;;17.40;99.90;;;;;;5119820;27;20449;-72
2023/07/26 09:35:44;;;;;;;6.43;2.45;;;17.60;99.90;;;;;;5153227;27;20055;-72
2023/07/26 09:38:12;;;;;;;4.40;2.10;;;17.80;99.90;;;;;;5119404;27;20039;-73
2023/07/26 09:40:37;;;;;;;5.65;2.38;;;18.00;99.90;;;;;;5118620;27;20137;-71
2023/07/26 09:43:03;;;;;;;5.68;2.50;;;18.10;99.90;;;;;;5119243;27;20074;-72
2023/07/26 09:45:30;;;;;;;6.43;2.70;;;18.10;99.90;;;;;;5118456;27;20047;-69
2023/07/26 09:48:07;;;;;;;6.38;2.55;;;18.30;99.90;;;;;;5136595;27;20399;-72
2023/07/26 09:50:35;;;;;;;4.97;2.35;;;18.50;99.90;;;;;;5119238;27;20506;-73
2023/07/26 09:53:04;;;;;;;6.55;2.83;;;18.70;99.90;;;;;;5118961;27;20055;-72
2023/07/26 09:55:30;;;;;;;5.95;2.53;;;18.90;99.90;;;;;;5118771;27;20465;-72
2023/07/26 09:57:57;;;;;;;7.32;2.92;;;19.10;99.90;;;;;;5124052;27;20057;-72
2023/07/26 10:00:26;;;;;;;6.57;2.58;;;19.20;99.90;;;;;;5138628;27;20059;-72
2023/07/26 10:02:58;;;;;;;7.53;2.67;;;19.10;99.90;;;;;;5139344;27;20100;-72
2023/07/26 10:05:30;;;;;;;5.32;2.20;;;19.20;99.90;;;;;;5118116;27;20047;-72
2023/07/26 10:07:56;;;;;;;7.60;2.83;;;19.30;99.90;;;;;;5137118;27;20047;-72
2023/07/26 10:10:23;;;;;;;5.65;2.35;;;19.30;99.90;;;;;;5135970;27;20075;-71
2023/07/26 10:12:52;;;;;;;6.88;2.20;;;19.30;99.90;;;;;;5101128;27;20039;-71
2023/07/26 10:15:21;;;;;;;7.03;2.35;;;19.30;99.90;;;;;;5136112;27;20510;-71
2023/07/26 10:17:47;;;;;;;4.57;1.73;;;19.40;99.90;;;;;;5118083;27;20118;-70
2023/07/26 10:20:14;;;;;;;5.45;2.20;;;19.40;99.90;;;;;;5136048;27;20539;-70
2023/07/26 10:22:41;;;;;;;4.13;1.77;;;19.40;99.90;;;;;;5117665;27;20495;-72
2023/07/26 10:25:08;;;;;;;4.38;1.92;;;19.60;99.90;;;;;;5101150;27;20074;-71
2023/07/26 10:27:34;;;;;;;5.63;1.98;;;19.80;99.90;;;;;;5117566;27;20047;-72
2023/07/26 10:30:00;;;;;;;5.72;2.13;;;20.10;99.90;;;;;;5135202;27;20051;-72
2023/07/26 10:32:26;;;;;;;6.00;1.80;;;20.20;99.90;;;;;;5135791;27;20482;-71
2023/07/26 10:34:56;;;;;;;5.07;1.80;;;20.30;99.90;;;;;;5152733;27;20047;-71
2023/07/26 10:37:23;;;;;;;8.57;2.08;;;19.90;99.90;;;;;;5101524;27;20126;-72
2023/07/26 10:39:50;;;;;;;4.40;1.63;;;20.00;99.90;;;;;;5100871;27;20528;-70
2023/07/26 10:42:27;;;;;;;6.15;1.70;;;19.90;99.90;;;;;;5135470;27;20051;-70
2023/07/26 10:44:54;;;;;;;6.07;1.73;;;20.00;99.90;;;;;;5135672;27;20090;-71
2023/07/26 10:47:20;;;;;;;10.18;1.92;;;20.30;99.90;;;;;;5151845;27;20043;-72
2023/07/26 10:49:47;;;;;;;5.60;1.70;;;20.30;99.90;;;;;;5100651;27;20134;-71
2023/07/26 10:52:13;;;;;;;6.68;1.90;;;20.60;99.90;;;;;;5135383;27;20049;-71
2023/07/26 10:54:44;;;;;;;4.75;1.30;;;20.80;99.90;;;;;;5135530;27;20390;-69
2023/07/26 10:57:16;;;;;;;4.00;1.25;;;20.80;99.90;;;;;;5151697;27;20053;-71
2023/07/26 10:59:59;;;;;;;7.07;1.80;;;20.80;99.90;;;;;;5135968;27;20151;-72
2023/07/26 11:02:39;;;;;;;3.78;1.52;;;20.70;99.90;;;;;;5136088;27;20104;-71
2023/07/26 11:05:12;;;;;;;5.28;1.95;;;20.50;99.90;;;;;;5138308;27;20047;-72
2023/07/26 11:08:01;;;;;;;6.63;1.88;;;20.20;99.90;;;;;;5126958;28;20138;-72
2023/07/26 11:10:49;;;;;;;6.82;2.10;;;19.90;99.90;;;;;;5135413;27;20050;-73
2023/07/26 11:13:32;;;;;;;5.38;2.15;;;19.80;99.90;;;;;;5117634;27;20116;-71
2023/07/26 11:16:01;;;;;;;4.78;1.45;;;19.80;99.90;;;;;;5135311;27;20479;-69
2023/07/26 11:18:27;;;;;;;4.97;0.77;;;19.60;99.90;;;;;;5135179;27;20130;-72
2023/07/26 11:20:54;;;;;;;7.70;1.17;;;18.10;99.90;;;;;;5135478;27;20086;-71
2023/07/26 11:23:28;;;;;;;4.07;0.77;;;16.20;99.90;;;;;;5134921;27;20039;-73
2023/07/26 11:25:56;;;;;;;1.85;0.65;;;15.20;99.90;;;;;;5135088;27;20440;-71
2023/07/26 11:28:23;;;;;;;2.70;0.60;;;14.70;99.90;;;;;;5134975;27;20043;-74
2023/07/26 11:30:49;;;;;;;;;;;14.40;99.90;;;;;;5100289;27;20475;-72
2023/07/26 11:33:35;;;;;;;5.40;1.10;;;14.30;99.90;;;;;;5117115;27;19942;-72
2023/07/26 11:36:07;;;;;;;4.87;1.37;;;14.30;99.90;;;;;;5135766;27;20047;-73
2023/07/26 11:38:33;;;;;;;6.57;2.15;;;14.30;99.90;;;;;;5099691;28;20046;-74
2023/07/26 11:40:58;;;;;;;5.30;1.75;;;14.40;99.90;;;;;;5134922;27;20482;-73
2023/07/26 11:43:26;;;;;;;6.97;1.60;;;14.60;99.90;;;;;;5134817;27;20049;-75
2023/07/26 11:45:53;;;;;;;5.47;1.80;;;14.50;99.90;;;;;;5150961;27;20059;-72
2023/07/26 11:48:19;;;;;;;5.53;1.80;;;14.70;99.90;;;;;;5116301;28;20086;-71
2023/07/26 11:50:45;;;;;;;4.82;1.70;;;14.90;99.90;;;;;;5117301;28;20086;-72
2023/07/26 11:53:15;;;;;;;6.50;1.85;;;15.00;99.90;;;;;;5116344;28;20471;-73
2023/07/26 11:55:42;;;;;;;5.18;1.60;;;15.30;99.90;;;;;;5135612;28;20058;-72
2023/07/26 11:58:12;;;;;;;6.13;2.00;;;15.40;99.90;;;;;;5116370;28;20080;-73
2023/07/26 12:00:42;;;;;;;5.13;1.70;;;15.60;99.90;;;;;;5134461;28;20091;-74
2023/07/26 12:03:07;;;;;;;5.85;1.48;;;15.70;99.90;;;;;;5134738;28;20043;-73
2023/07/26 12:05:33;;;;;;;4.70;1.70;;;15.90;99.90;;;;;;5134383;28;20483;-72
2023/07/26 12:08:03;;;;;;;6.38;1.48;;;16.20;99.90;;;;;;5082344;28;20050;-73
2023/07/26 12:10:34;;;;;;;4.20;1.73;;;16.30;99.90;;;;;;5116177;28;20054;-76
2023/07/26 12:13:07;;;;;;;5.47;2.00;;;16.30;99.90;;;;;;5154440;27;20133;-72
2023/07/26 12:15:51;;;;;;;6.10;1.65;;;16.20;99.90;;;;;;5149884;28;20047;-75
2023/07/26 12:18:18;;;;;;;5.60;1.70;;;16.20;99.90;;;;;;5135682;28;20095;-74
2023/07/26 12:20:59;;;;;;;5.93;1.52;;;16.10;99.90;;;;;;5117223;28;20047;-73
2023/07/26 12:23:26;;;;;;;7.70;1.98;;;15.90;99.90;;;;;;5135085;28;20055;-78
2023/07/26 12:25:56;;;;;;;8.93;1.70;;;15.90;99.90;;;;;;5100147;28;20043;-71
2023/07/26 12:28:22;;;;;;;5.35;1.55;;;16.00;99.90;;;;;;5134150;28;20058;-72
2023/07/26 12:30:56;;;;;;;5.72;1.75;;;16.10;99.90;;;;;;5134645;28;20100;-72
2023/07/26 12:33:23;;;;;;;6.70;1.73;;;16.10;99.90;;;;;;5134531;28;20047;-72
2023/07/26 12:35:52;;;;;;;4.93;1.40;;;16.10;99.90;;;;;;5116038;28;20057;-69
2023/07/26 12:38:18;;;;;;;5.43;1.85;;;16.10;99.90;;;;;;5134128;28;20036;-71
2023/07/26 12:40:44;;;;;;;5.63;1.75;;;16.20;99.90;;;;;;5115904;28;20043;-71
2023/07/26 12:43:27;;;;;;;6.10;2.00;;;16.40;99.90;;;;;;5134120;28;20078;-71
2023/07/26 12:45:58;;;;;;;5.82;1.58;;;16.20;99.90;;;;;;5134974;28;20430;-71
2023/07/26 12:48:24;;;;;;;5.22;1.67;;;16.30;99.90;;;;;;5134435;28;20043;-71